Mono City, California
Current Conditions -  °F | °C
As of 12:15 AM on Monday 26 Jan 2015 (Local Time) from KMMH Reporting Station
Clear Clear  
Wind Chill: 29°   Ceiling: Unl
Heat Index: 34°   Visibility: 10mi
Dew Point: 19°   Wind: 6mph
Humidity: 56%   Direction: 280°W
Pressure: 30.36"   Gusts: NA
Location:  38.0132°N, 118.966°W
Report Text: KMMH 260815Z AUTO 28005KT 10SM CLR 01/M07 A3036 RMK AO1
Loading
Personal Weather Stations






























Interactive Weather Map New forecast layout! Learn more

10-Day Weather Forecast

Advertisements
Track Severe Weather on mobile